sensor_id;sensor_type;location;lat;lon;timestamp;P1;durP1;ratioP1;P2;durP2;ratioP2
31406;SDS011;18043;52.438;4.836;2022-09-01T00:00:36;8.10;;;1.95;;
31406;SDS011;18043;52.438;4.836;2022-09-01T00:03:11;3.80;;;1.85;;
31406;SDS011;18043;52.438;4.836;2022-09-01T00:05:43;2.92;;;1.60;;
31406;SDS011;18043;52.438;4.836;2022-09-01T00:08:23;7.10;;;2.17;;
31406;SDS011;18043;52.438;4.836;2022-09-01T00:10:57;3.92;;;1.45;;
31406;SDS011;18043;52.438;4.836;2022-09-01T00:13:29;10.93;;;2.67;;
31406;SDS011;18043;52.438;4.836;2022-09-01T00:16:03;6.85;;;1.70;;
31406;SDS011;18043;52.438;4.836;2022-09-01T00:18:36;3.65;;;1.50;;
31406;SDS011;18043;52.438;4.836;2022-09-01T00:21:08;3.45;;;1.60;;
31406;SDS011;18043;52.438;4.836;2022-09-01T00:23:42;6.75;;;1.85;;
31406;SDS011;18043;52.438;4.836;2022-09-01T00:26:16;3.45;;;2.10;;
31406;SDS011;18043;52.438;4.836;2022-09-01T00:28:48;4.03;;;1.38;;
31406;SDS011;18043;52.438;4.836;2022-09-01T00:31:21;4.95;;;1.75;;
31406;SDS011;18043;52.438;4.836;2022-09-01T00:33:54;3.30;;;1.70;;
31406;SDS011;18043;52.438;4.836;2022-09-01T00:36:27;5.28;;;2.10;;
31406;SDS011;18043;52.438;4.836;2022-09-01T00:39:00;5.97;;;1.85;;
31406;SDS011;18043;52.438;4.836;2022-09-01T00:41:37;2.83;;;1.80;;
31406;SDS011;18043;52.438;4.836;2022-09-01T00:44:15;9.50;;;2.15;;
31406;SDS011;18043;52.438;4.836;2022-09-01T00:46:53;3.38;;;2.45;;
31406;SDS011;18043;52.438;4.836;2022-09-01T00:49:28;8.35;;;3.00;;
31406;SDS011;18043;52.438;4.836;2022-09-01T00:52:04;3.20;;;2.00;;
31406;SDS011;18043;52.438;4.836;2022-09-01T00:54:40;4.22;;;2.13;;
31406;SDS011;18043;52.438;4.836;2022-09-01T00:57:22;5.00;;;2.40;;
31406;SDS011;18043;52.438;4.836;2022-09-01T00:59:56;22.48;;;3.05;;
31406;SDS011;18043;52.438;4.836;2022-09-01T01:02:32;6.25;;;2.53;;
31406;SDS011;18043;52.438;4.836;2022-09-01T01:05:08;9.90;;;2.30;;
31406;SDS011;18043;52.438;4.836;2022-09-01T01:07:41;9.07;;;2.10;;
31406;SDS011;18043;52.438;4.836;2022-09-01T01:10:17;4.20;;;2.35;;
31406;SDS011;18043;52.438;4.836;2022-09-01T01:12:53;3.20;;;2.25;;
31406;SDS011;18043;52.438;4.836;2022-09-01T01:15:26;5.05;;;1.95;;
31406;SDS011;18043;52.438;4.836;2022-09-01T01:17:59;7.72;;;1.77;;
31406;SDS011;18043;52.438;4.836;2022-09-01T01:20:32;4.47;;;2.03;;
31406;SDS011;18043;52.438;4.836;2022-09-01T01:23:26;4.60;;;2.40;;
31406;SDS011;18043;52.438;4.836;2022-09-01T01:26:09;5.50;;;2.00;;
31406;SDS011;18043;52.438;4.836;2022-09-01T01:28:43;3.53;;;2.00;;
31406;SDS011;18043;52.438;4.836;2022-09-01T01:31:16;7.78;;;1.88;;
31406;SDS011;18043;52.438;4.836;2022-09-01T01:33:52;4.30;;;2.03;;
31406;SDS011;18043;52.438;4.836;2022-09-01T01:36:28;7.22;;;2.38;;
31406;SDS011;18043;52.438;4.836;2022-09-01T01:39:06;8.68;;;2.30;;
31406;SDS011;18043;52.438;4.836;2022-09-01T01:41:43;5.22;;;2.10;;
31406;SDS011;18043;52.438;4.836;2022-09-01T01:44:19;5.63;;;2.05;;
31406;SDS011;18043;52.438;4.836;2022-09-01T01:46:54;4.13;;;1.60;;
31406;SDS011;18043;52.438;4.836;2022-09-01T01:49:27;4.93;;;2.33;;
31406;SDS011;18043;52.438;4.836;2022-09-01T01:52:00;5.75;;;2.10;;
31406;SDS011;18043;52.438;4.836;2022-09-01T01:54:33;4.70;;;2.35;;
31406;SDS011;18043;52.438;4.836;2022-09-01T01:57:07;5.88;;;1.80;;
31406;SDS011;18043;52.438;4.836;2022-09-01T01:59:40;2.65;;;1.90;;
31406;SDS011;18043;52.438;4.836;2022-09-01T02:02:13;8.05;;;2.55;;
31406;SDS011;18043;52.438;4.836;2022-09-01T02:04:45;5.28;;;2.60;;
31406;SDS011;18043;52.438;4.836;2022-09-01T02:07:18;5.25;;;2.60;;
31406;SDS011;18043;52.438;4.836;2022-09-01T02:09:50;5.68;;;2.67;;
31406;SDS011;18043;52.438;4.836;2022-09-01T02:12:24;3.05;;;2.35;;
31406;SDS011;18043;52.438;4.836;2022-09-01T02:14:57;3.72;;;2.30;;
31406;SDS011;18043;52.438;4.836;2022-09-01T02:17:29;5.72;;;2.55;;
31406;SDS011;18043;52.438;4.836;2022-09-01T02:20:02;7.00;;;2.60;;
31406;SDS011;18043;52.438;4.836;2022-09-01T02:22:35;5.22;;;3.08;;
31406;SDS011;18043;52.438;4.836;2022-09-01T02:25:08;6.65;;;2.33;;
31406;SDS011;18043;52.438;4.836;2022-09-01T02:27:47;5.90;;;2.35;;
31406;SDS011;18043;52.438;4.836;2022-09-01T02:30:20;5.63;;;2.33;;
31406;SDS011;18043;52.438;4.836;2022-09-01T02:32:55;9.68;;;3.08;;
31406;SDS011;18043;52.438;4.836;2022-09-01T02:35:28;5.05;;;3.38;;
31406;SDS011;18043;52.438;4.836;2022-09-01T02:38:03;6.32;;;2.80;;
31406;SDS011;18043;52.438;4.836;2022-09-01T02:40:37;3.95;;;2.70;;
31406;SDS011;18043;52.438;4.836;2022-09-01T02:43:14;3.55;;;2.30;;
31406;SDS011;18043;52.438;4.836;2022-09-01T02:45:50;3.65;;;2.00;;
31406;SDS011;18043;52.438;4.836;2022-09-01T02:48:25;7.10;;;2.63;;
31406;SDS011;18043;52.438;4.836;2022-09-01T02:51:07;5.82;;;2.45;;
31406;SDS011;18043;52.438;4.836;2022-09-01T02:53:43;5.78;;;2.55;;
31406;SDS011;18043;52.438;4.836;2022-09-01T02:56:22;3.92;;;2.05;;
31406;SDS011;18043;52.438;4.836;2022-09-01T02:58:57;7.45;;;2.08;;
31406;SDS011;18043;52.438;4.836;2022-09-01T03:01:32;5.45;;;2.20;;
31406;SDS011;18043;52.438;4.836;2022-09-01T03:04:05;6.75;;;2.10;;
31406;SDS011;18043;52.438;4.836;2022-09-01T03:06:41;5.05;;;2.25;;
31406;SDS011;18043;52.438;4.836;2022-09-01T03:09:15;3.85;;;2.70;;
31406;SDS011;18043;52.438;4.836;2022-09-01T03:15:21;4.55;;;2.05;;
31406;SDS011;18043;52.438;4.836;2022-09-01T03:17:55;5.18;;;1.83;;
31406;SDS011;18043;52.438;4.836;2022-09-01T03:20:30;6.47;;;3.10;;
31406;SDS011;18043;52.438;4.836;2022-09-01T03:23:06;3.00;;;2.15;;
31406;SDS011;18043;52.438;4.836;2022-09-01T03:25:40;6.25;;;2.72;;
31406;SDS011;18043;52.438;4.836;2022-09-01T03:30:51;6.13;;;2.40;;
31406;SDS011;18043;52.438;4.836;2022-09-01T03:33:26;8.80;;;2.80;;
31406;SDS011;18043;52.438;4.836;2022-09-01T03:36:00;7.18;;;2.67;;
31406;SDS011;18043;52.438;4.836;2022-09-01T03:38:33;6.78;;;3.67;;
31406;SDS011;18043;52.438;4.836;2022-09-01T03:41:05;4.53;;;3.13;;
31406;SDS011;18043;52.438;4.836;2022-09-01T03:43:38;3.58;;;2.38;;
31406;SDS011;18043;52.438;4.836;2022-09-01T03:46:12;4.15;;;2.45;;
31406;SDS011;18043;52.438;4.836;2022-09-01T03:48:50;10.25;;;3.60;;
31406;SDS011;18043;52.438;4.836;2022-09-01T03:51:24;6.05;;;2.78;;
31406;SDS011;18043;52.438;4.836;2022-09-01T03:54:00;3.78;;;3.00;;
31406;SDS011;18043;52.438;4.836;2022-09-01T03:56:32;4.70;;;2.53;;
31406;SDS011;18043;52.438;4.836;2022-09-01T03:59:10;6.72;;;2.60;;
31406;SDS011;18043;52.438;4.836;2022-09-01T04:01:47;5.10;;;2.72;;
31406;SDS011;18043;52.438;4.836;2022-09-01T04:04:19;4.80;;;2.65;;
31406;SDS011;18043;52.438;4.836;2022-09-01T04:06:52;4.10;;;2.60;;
31406;SDS011;18043;52.438;4.836;2022-09-01T04:09:28;2.53;;;2.33;;
31406;SDS011;18043;52.438;4.836;2022-09-01T04:15:15;3.55;;;2.45;;
31406;SDS011;18043;52.438;4.836;2022-09-01T04:17:50;8.60;;;3.20;;
31406;SDS011;18043;52.438;4.836;2022-09-01T04:20:40;5.95;;;2.90;;
31406;SDS011;18043;52.438;4.836;2022-09-01T04:23:19;4.10;;;2.88;;
31406;SDS011;18043;52.438;4.836;2022-09-01T04:25:57;12.63;;;3.33;;
31406;SDS011;18043;52.438;4.836;2022-09-01T04:28:38;5.45;;;2.38;;
31406;SDS011;18043;52.438;4.836;2022-09-01T04:31:16;5.97;;;2.72;;
31406;SDS011;18043;52.438;4.836;2022-09-01T04:33:52;4.78;;;2.90;;
31406;SDS011;18043;52.438;4.836;2022-09-01T04:36:28;6.45;;;2.13;;
31406;SDS011;18043;52.438;4.836;2022-09-01T04:39:03;2.88;;;2.65;;
31406;SDS011;18043;52.438;4.836;2022-09-01T04:41:39;2.80;;;2.53;;
31406;SDS011;18043;52.438;4.836;2022-09-01T04:44:15;7.90;;;2.47;;
31406;SDS011;18043;52.438;4.836;2022-09-01T04:46:48;4.20;;;2.08;;
31406;SDS011;18043;52.438;4.836;2022-09-01T04:49:22;3.85;;;2.58;;
31406;SDS011;18043;52.438;4.836;2022-09-01T04:51:56;7.60;;;2.58;;
31406;SDS011;18043;52.438;4.836;2022-09-01T04:54:28;3.85;;;1.92;;
31406;SDS011;18043;52.438;4.836;2022-09-01T04:57:02;5.68;;;2.85;;
31406;SDS011;18043;52.438;4.836;2022-09-01T04:59:36;4.95;;;1.95;;
31406;SDS011;18043;52.438;4.836;2022-09-01T05:02:08;5.60;;;3.15;;
31406;SDS011;18043;52.438;4.836;2022-09-01T05:04:42;3.58;;;2.47;;
31406;SDS011;18043;52.438;4.836;2022-09-01T05:07:15;4.78;;;2.35;;
31406;SDS011;18043;52.438;4.836;2022-09-01T05:09:47;5.38;;;2.20;;
31406;SDS011;18043;52.438;4.836;2022-09-01T05:12:20;5.00;;;2.88;;
31406;SDS011;18043;52.438;4.836;2022-09-01T05:14:53;4.90;;;2.25;;
31406;SDS011;18043;52.438;4.836;2022-09-01T05:17:25;3.40;;;2.92;;
31406;SDS011;18043;52.438;4.836;2022-09-01T05:19:59;5.68;;;1.90;;
31406;SDS011;18043;52.438;4.836;2022-09-01T05:22:32;5.28;;;2.13;;
31406;SDS011;18043;52.438;4.836;2022-09-01T05:25:06;3.00;;;2.35;;
31406;SDS011;18043;52.438;4.836;2022-09-01T05:27:43;3.25;;;2.13;;
31406;SDS011;18043;52.438;4.836;2022-09-01T05:30:18;6.72;;;2.30;;
31406;SDS011;18043;52.438;4.836;2022-09-01T05:32:51;6.88;;;2.47;;
31406;SDS011;18043;52.438;4.836;2022-09-01T05:35:25;2.70;;;1.65;;
31406;SDS011;18043;52.438;4.836;2022-09-01T05:37:59;4.18;;;2.10;;
31406;SDS011;18043;52.438;4.836;2022-09-01T05:40:32;5.55;;;2.30;;
31406;SDS011;18043;52.438;4.836;2022-09-01T05:43:07;4.20;;;2.28;;
31406;SDS011;18043;52.438;4.836;2022-09-01T05:45:41;4.25;;;2.20;;
31406;SDS011;18043;52.438;4.836;2022-09-01T05:48:14;2.60;;;2.40;;
31406;SDS011;18043;52.438;4.836;2022-09-01T05:50:54;5.60;;;1.92;;
31406;SDS011;18043;52.438;4.836;2022-09-01T05:53:27;3.55;;;2.15;;
31406;SDS011;18043;52.438;4.836;2022-09-01T05:56:00;3.58;;;2.53;;
31406;SDS011;18043;52.438;4.836;2022-09-01T05:58:38;4.85;;;1.92;;
31406;SDS011;18043;52.438;4.836;2022-09-01T06:01:16;3.25;;;1.90;;
31406;SDS011;18043;52.438;4.836;2022-09-01T06:03:52;2.38;;;1.80;;
31406;SDS011;18043;52.438;4.836;2022-09-01T06:06:29;5.97;;;2.53;;
31406;SDS011;18043;52.438;4.836;2022-09-01T06:09:07;6.03;;;2.53;;
31406;SDS011;18043;52.438;4.836;2022-09-01T06:11:41;10.50;;;1.58;;
31406;SDS011;18043;52.438;4.836;2022-09-01T06:14:16;3.63;;;1.88;;
31406;SDS011;18043;52.438;4.836;2022-09-01T06:16:49;4.40;;;1.65;;
31406;SDS011;18043;52.438;4.836;2022-09-01T06:19:23;8.57;;;1.90;;
31406;SDS011;18043;52.438;4.836;2022-09-01T06:21:57;4.03;;;1.40;;
31406;SDS011;18043;52.438;4.836;2022-09-01T06:24:31;4.00;;;1.50;;
31406;SDS011;18043;52.438;4.836;2022-09-01T06:27:04;5.20;;;2.22;;
31406;SDS011;18043;52.438;4.836;2022-09-01T06:29:38;1.92;;;1.77;;
31406;SDS011;18043;52.438;4.836;2022-09-01T06:32:11;3.03;;;1.58;;
31406;SDS011;18043;52.438;4.836;2022-09-01T06:34:44;5.63;;;1.42;;
31406;SDS011;18043;52.438;4.836;2022-09-01T06:37:20;5.43;;;1.50;;
31406;SDS011;18043;52.438;4.836;2022-09-01T06:39:52;9.13;;;1.60;;
31406;SDS011;18043;52.438;4.836;2022-09-01T06:42:26;5.07;;;1.70;;
31406;SDS011;18043;52.438;4.836;2022-09-01T06:45:00;5.30;;;1.38;;
31406;SDS011;18043;52.438;4.836;2022-09-01T06:47:32;1.67;;;0.90;;
31406;SDS011;18043;52.438;4.836;2022-09-01T06:50:05;2.67;;;1.52;;
31406;SDS011;18043;52.438;4.836;2022-09-01T06:52:41;5.40;;;1.20;;
31406;SDS011;18043;52.438;4.836;2022-09-01T06:55:14;11.10;;;1.95;;
31406;SDS011;18043;52.438;4.836;2022-09-01T06:57:47;5.00;;;1.40;;
31406;SDS011;18043;52.438;4.836;2022-09-01T07:00:23;4.97;;;1.20;;
31406;SDS011;18043;52.438;4.836;2022-09-01T07:02:57;2.97;;;1.10;;
31406;SDS011;18043;52.438;4.836;2022-09-01T07:05:36;5.72;;;1.63;;
31406;SDS011;18043;52.438;4.836;2022-09-01T07:08:12;4.88;;;0.88;;
31406;SDS011;18043;52.438;4.836;2022-09-01T07:10:49;5.63;;;1.30;;
31406;SDS011;18043;52.438;4.836;2022-09-01T07:13:23;2.95;;;1.27;;
31406;SDS011;18043;52.438;4.836;2022-09-01T07:15:56;6.55;;;1.40;;
31406;SDS011;18043;52.438;4.836;2022-09-01T07:18:29;4.30;;;1.52;;
31406;SDS011;18043;52.438;4.836;2022-09-01T07:21:04;4.50;;;1.25;;
31406;SDS011;18043;52.438;4.836;2022-09-01T07:23:38;3.38;;;1.20;;
31406;SDS011;18043;52.438;4.836;2022-09-01T07:26:12;8.40;;;1.50;;
31406;SDS011;18043;52.438;4.836;2022-09-01T07:28:48;1.90;;;1.10;;
31406;SDS011;18043;52.438;4.836;2022-09-01T07:31:22;3.58;;;1.25;;
31406;SDS011;18043;52.438;4.836;2022-09-01T07:33:59;3.90;;;1.17;;
31406;SDS011;18043;52.438;4.836;2022-09-01T07:36:33;2.05;;;1.05;;
31406;SDS011;18043;52.438;4.836;2022-09-01T07:39:10;1.83;;;0.88;;
31406;SDS011;18043;52.438;4.836;2022-09-01T07:41:44;2.88;;;1.45;;
31406;SDS011;18043;52.438;4.836;2022-09-01T07:44:17;1.80;;;1.20;;
31406;SDS011;18043;52.438;4.836;2022-09-01T07:46:50;2.70;;;0.70;;
31406;SDS011;18043;52.438;4.836;2022-09-01T07:49:22;5.40;;;1.65;;
31406;SDS011;18043;52.438;4.836;2022-09-01T07:51:56;7.18;;;1.55;;
31406;SDS011;18043;52.438;4.836;2022-09-01T07:54:32;2.17;;;1.20;;
31406;SDS011;18043;52.438;4.836;2022-09-01T07:57:06;2.60;;;1.00;;
31406;SDS011;18043;52.438;4.836;2022-09-01T07:59:39;4.18;;;1.27;;
31406;SDS011;18043;52.438;4.836;2022-09-01T08:02:12;2.20;;;1.05;;
31406;SDS011;18043;52.438;4.836;2022-09-01T08:04:48;5.95;;;1.83;;
31406;SDS011;18043;52.438;4.836;2022-09-01T08:09:54;2.20;;;1.00;;
31406;SDS011;18043;52.438;4.836;2022-09-01T08:12:27;3.08;;;1.65;;
31406;SDS011;18043;52.438;4.836;2022-09-01T08:15:00;5.13;;;1.10;;
31406;SDS011;18043;52.438;4.836;2022-09-01T08:17:33;10.55;;;1.40;;
31406;SDS011;18043;52.438;4.836;2022-09-01T08:20:08;6.50;;;1.77;;
31406;SDS011;18043;52.438;4.836;2022-09-01T08:22:42;4.90;;;0.85;;
31406;SDS011;18043;52.438;4.836;2022-09-01T08:25:16;3.50;;;1.55;;
31406;SDS011;18043;52.438;4.836;2022-09-01T08:27:49;3.10;;;1.27;;
31406;SDS011;18043;52.438;4.836;2022-09-01T08:30:22;8.02;;;1.40;;
31406;SDS011;18043;52.438;4.836;2022-09-01T08:32:54;3.33;;;0.95;;
31406;SDS011;18043;52.438;4.836;2022-09-01T08:35:27;2.08;;;1.48;;
31406;SDS011;18043;52.438;4.836;2022-09-01T08:38:00;1.75;;;1.02;;
31406;SDS011;18043;52.438;4.836;2022-09-01T08:43:11;3.42;;;1.33;;
31406;SDS011;18043;52.438;4.836;2022-09-01T08:45:54;3.60;;;1.00;;
31406;SDS011;18043;52.438;4.836;2022-09-01T08:48:33;2.63;;;1.08;;
31406;SDS011;18043;52.438;4.836;2022-09-01T08:51:11;4.72;;;1.20;;
31406;SDS011;18043;52.438;4.836;2022-09-01T08:53:51;2.47;;;0.98;;
31406;SDS011;18043;52.438;4.836;2022-09-01T08:56:33;1.77;;;1.00;;
31406;SDS011;18043;52.438;4.836;2022-09-01T08:59:07;1.58;;;1.15;;
31406;SDS011;18043;52.438;4.836;2022-09-01T09:01:42;7.03;;;1.42;;
31406;SDS011;18043;52.438;4.836;2022-09-01T09:04:28;6.07;;;1.30;;
31406;SDS011;18043;52.438;4.836;2022-09-01T09:07:21;3.75;;;1.17;;
31406;SDS011;18043;52.438;4.836;2022-09-01T09:10:05;4.68;;;1.23;;
31406;SDS011;18043;52.438;4.836;2022-09-01T09:12:47;4.18;;;1.30;;
31406;SDS011;18043;52.438;4.836;2022-09-01T09:15:31;2.10;;;1.20;;
31406;SDS011;18043;52.438;4.836;2022-09-01T09:18:13;5.18;;;1.65;;
31406;SDS011;18043;52.438;4.836;2022-09-01T09:20:50;2.30;;;1.27;;
31406;SDS011;18043;52.438;4.836;2022-09-01T09:23:25;3.53;;;1.60;;
31406;SDS011;18043;52.438;4.836;2022-09-01T09:26:06;6.20;;;1.73;;
31406;SDS011;18043;52.438;4.836;2022-09-01T09:28:40;4.25;;;1.55;;
31406;SDS011;18043;52.438;4.836;2022-09-01T09:34:28;8.85;;;1.48;;
31406;SDS011;18043;52.438;4.836;2022-09-01T09:37:19;1.92;;;0.95;;
31406;SDS011;18043;52.438;4.836;2022-09-01T09:40:06;11.18;;;1.42;;
31406;SDS011;18043;52.438;4.836;2022-09-01T09:42:57;5.50;;;1.60;;
31406;SDS011;18043;52.438;4.836;2022-09-01T09:45:38;1.85;;;1.02;;
31406;SDS011;18043;52.438;4.836;2022-09-01T09:48:26;9.25;;;2.03;;
31406;SDS011;18043;52.438;4.836;2022-09-01T09:51:13;3.40;;;1.02;;
31406;SDS011;18043;52.438;4.836;2022-09-01T09:53:50;1.30;;;1.20;;
31406;SDS011;18043;52.438;4.836;2022-09-01T09:56:24;5.13;;;1.70;;
31406;SDS011;18043;52.438;4.836;2022-09-01T09:58:57;2.95;;;1.20;;
31406;SDS011;18043;52.438;4.836;2022-09-01T10:01:31;5.60;;;1.08;;
31406;SDS011;18043;52.438;4.836;2022-09-01T10:04:04;3.08;;;1.40;;
31406;SDS011;18043;52.438;4.836;2022-09-01T10:06:37;2.33;;;1.45;;
31406;SDS011;18043;52.438;4.836;2022-09-01T10:09:15;6.55;;;1.80;;
31406;SDS011;18043;52.438;4.836;2022-09-01T10:12:03;2.15;;;1.10;;
31406;SDS011;18043;52.438;4.836;2022-09-01T10:14:39;6.25;;;1.70;;
31406;SDS011;18043;52.438;4.836;2022-09-01T10:17:20;2.83;;;1.40;;
31406;SDS011;18043;52.438;4.836;2022-09-01T10:19:59;3.38;;;1.48;;
31406;SDS011;18043;52.438;4.836;2022-09-01T10:22:37;3.90;;;1.42;;
31406;SDS011;18043;52.438;4.836;2022-09-01T10:25:13;2.80;;;1.13;;
31406;SDS011;18043;52.438;4.836;2022-09-01T10:27:50;7.90;;;1.60;;
31406;SDS011;18043;52.438;4.836;2022-09-01T10:30:26;2.15;;;1.02;;
31406;SDS011;18043;52.438;4.836;2022-09-01T10:33:02;1.30;;;0.60;;
31406;SDS011;18043;52.438;4.836;2022-09-01T10:35:37;0.90;;;0.80;;
31406;SDS011;18043;52.438;4.836;2022-09-01T10:38:15;2.03;;;0.98;;
31406;SDS011;18043;52.438;4.836;2022-09-01T10:40:51;3.72;;;1.10;;
31406;SDS011;18043;52.438;4.836;2022-09-01T10:43:40;4.30;;;1.17;;
31406;SDS011;18043;52.438;4.836;2022-09-01T10:55:40;6.22;;;1.00;;
31406;SDS011;18043;52.438;4.836;2022-09-01T10:58:23;4.45;;;0.95;;
31406;SDS011;18043;52.438;4.836;2022-09-01T11:07:45;6.65;;;1.00;;
31406;SDS011;18043;52.438;4.836;2022-09-01T11:10:27;2.35;;;0.93;;
31406;SDS011;18043;52.438;4.836;2022-09-01T11:13:35;5.50;;;1.02;;
31406;SDS011;18043;52.438;4.836;2022-09-01T11:16:23;8.35;;;1.23;;
31406;SDS011;18043;52.438;4.836;2022-09-01T11:22:17;1.65;;;0.80;;
31406;SDS011;18043;52.438;4.836;2022-09-01T11:31:22;2.45;;;1.05;;
31406;SDS011;18043;52.438;4.836;2022-09-01T11:34:11;5.30;;;1.40;;
31406;SDS011;18043;52.438;4.836;2022-09-01T11:36:55;1.85;;;1.02;;
31406;SDS011;18043;52.438;4.836;2022-09-01T11:39:35;5.27;;;1.10;;
31406;SDS011;18043;52.438;4.836;2022-09-01T11:42:15;2.88;;;0.65;;
31406;SDS011;18043;52.438;4.836;2022-09-01T11:44:51;1.27;;;0.80;;
31406;SDS011;18043;52.438;4.836;2022-09-01T11:47:29;1.80;;;0.75;;
31406;SDS011;18043;52.438;4.836;2022-09-01T11:50:06;3.78;;;0.80;;
31406;SDS011;18043;52.438;4.836;2022-09-01T11:52:52;3.60;;;1.95;;
31406;SDS011;18043;52.438;4.836;2022-09-01T11:55:29;3.70;;;0.88;;
31406;SDS011;18043;52.438;4.836;2022-09-01T11:58:05;1.08;;;0.75;;
31406;SDS011;18043;52.438;4.836;2022-09-01T12:00:41;1.77;;;0.77;;
31406;SDS011;18043;52.438;4.836;2022-09-01T12:07:05;0.88;;;0.60;;
31406;SDS011;18043;52.438;4.836;2022-09-01T12:09:42;2.45;;;1.00;;
31406;SDS011;18043;52.438;4.836;2022-09-01T12:15:15;2.90;;;0.90;;
31406;SDS011;18043;52.438;4.836;2022-09-01T12:17:52;2.58;;;0.70;;
31406;SDS011;18043;52.438;4.836;2022-09-01T12:20:38;2.10;;;0.50;;
31406;SDS011;18043;52.438;4.836;2022-09-01T12:23:16;1.17;;;0.68;;
31406;SDS011;18043;52.438;4.836;2022-09-01T12:25:55;2.47;;;0.82;;
31406;SDS011;18043;52.438;4.836;2022-09-01T12:28:31;7.70;;;0.63;;
31406;SDS011;18043;52.438;4.836;2022-09-01T12:31:06;2.95;;;0.60;;
31406;SDS011;18043;52.438;4.836;2022-09-01T12:33:43;3.53;;;0.65;;
31406;SDS011;18043;52.438;4.836;2022-09-01T12:36:21;2.25;;;0.70;;
31406;SDS011;18043;52.438;4.836;2022-09-01T12:38:56;2.60;;;0.60;;
31406;SDS011;18043;52.438;4.836;2022-09-01T12:45:40;3.58;;;0.55;;
31406;SDS011;18043;52.438;4.836;2022-09-01T12:48:24;1.70;;;0.50;;
31406;SDS011;18043;52.438;4.836;2022-09-01T12:51:00;5.15;;;0.63;;
31406;SDS011;18043;52.438;4.836;2022-09-01T12:53:36;3.42;;;0.60;;
31406;SDS011;18043;52.438;4.836;2022-09-01T12:56:16;6.88;;;1.00;;
31406;SDS011;18043;52.438;4.836;2022-09-01T12:59:06;2.65;;;1.23;;
31406;SDS011;18043;52.438;4.836;2022-09-01T13:01:44;2.35;;;0.68;;
31406;SDS011;18043;52.438;4.836;2022-09-01T13:04:23;2.95;;;0.70;;
31406;SDS011;18043;52.438;4.836;2022-09-01T13:07:01;4.00;;;0.80;;
31406;SDS011;18043;52.438;4.836;2022-09-01T13:09:35;1.33;;;0.70;;
31406;SDS011;18043;52.438;4.836;2022-09-01T13:12:09;2.40;;;0.90;;
31406;SDS011;18043;52.438;4.836;2022-09-01T13:14:51;4.82;;;0.70;;
31406;SDS011;18043;52.438;4.836;2022-09-01T13:17:25;4.30;;;0.82;;
31406;SDS011;18043;52.438;4.836;2022-09-01T13:19:57;2.83;;;0.77;;
31406;SDS011;18043;52.438;4.836;2022-09-01T13:22:30;3.03;;;0.93;;
31406;SDS011;18043;52.438;4.836;2022-09-01T13:25:04;1.77;;;0.75;;
31406;SDS011;18043;52.438;4.836;2022-09-01T13:27:37;1.77;;;1.00;;
31406;SDS011;18043;52.438;4.836;2022-09-01T13:30:13;3.53;;;0.75;;
31406;SDS011;18043;52.438;4.836;2022-09-01T13:32:50;1.38;;;0.60;;
31406;SDS011;18043;52.438;4.836;2022-09-01T13:35:22;4.57;;;0.98;;
31406;SDS011;18043;52.438;4.836;2022-09-01T13:37:55;3.55;;;1.33;;
31406;SDS011;18043;52.438;4.836;2022-09-01T13:40:28;4.43;;;1.10;;
31406;SDS011;18043;52.438;4.836;2022-09-01T13:43:00;3.72;;;1.27;;
31406;SDS011;18043;52.438;4.836;2022-09-01T13:45:33;3.67;;;0.85;;
31406;SDS011;18043;52.438;4.836;2022-09-01T13:48:11;1.65;;;0.82;;
31406;SDS011;18043;52.438;4.836;2022-09-01T13:50:45;1.08;;;0.70;;
31406;SDS011;18043;52.438;4.836;2022-09-01T13:53:20;1.80;;;0.70;;
31406;SDS011;18043;52.438;4.836;2022-09-01T13:55:53;4.32;;;0.80;;
31406;SDS011;18043;52.438;4.836;2022-09-01T13:58:25;5.40;;;0.77;;
31406;SDS011;18043;52.438;4.836;2022-09-01T14:01:10;3.25;;;0.75;;
31406;SDS011;18043;52.438;4.836;2022-09-01T14:03:46;0.80;;;0.70;;
31406;SDS011;18043;52.438;4.836;2022-09-01T14:06:19;0.80;;;0.60;;
31406;SDS011;18043;52.438;4.836;2022-09-01T14:08:52;0.88;;;0.75;;
31406;SDS011;18043;52.438;4.836;2022-09-01T14:11:24;1.85;;;0.73;;
31406;SDS011;18043;52.438;4.836;2022-09-01T14:13:58;1.45;;;0.68;;
31406;SDS011;18043;52.438;4.836;2022-09-01T14:16:31;4.30;;;0.82;;
31406;SDS011;18043;52.438;4.836;2022-09-01T14:19:05;1.58;;;0.90;;
31406;SDS011;18043;52.438;4.836;2022-09-01T14:21:38;0.50;;;0.50;;
31406;SDS011;18043;52.438;4.836;2022-09-01T14:24:10;7.05;;;0.98;;
31406;SDS011;18043;52.438;4.836;2022-09-01T14:26:43;1.02;;;0.80;;
31406;SDS011;18043;52.438;4.836;2022-09-01T14:29:16;1.00;;;0.85;;
31406;SDS011;18043;52.438;4.836;2022-09-01T14:31:48;1.85;;;0.90;;
31406;SDS011;18043;52.438;4.836;2022-09-01T14:34:22;4.72;;;0.93;;
31406;SDS011;18043;52.438;4.836;2022-09-01T14:36:55;2.80;;;0.85;;
31406;SDS011;18043;52.438;4.836;2022-09-01T14:39:28;1.35;;;0.90;;
31406;SDS011;18043;52.438;4.836;2022-09-01T14:44:36;1.88;;;0.80;;
31406;SDS011;18043;52.438;4.836;2022-09-01T14:47:09;2.45;;;0.85;;
31406;SDS011;18043;52.438;4.836;2022-09-01T14:49:43;1.52;;;0.80;;
31406;SDS011;18043;52.438;4.836;2022-09-01T14:52:16;1.55;;;0.95;;
31406;SDS011;18043;52.438;4.836;2022-09-01T14:54:50;1.17;;;0.75;;
31406;SDS011;18043;52.438;4.836;2022-09-01T14:57:22;3.03;;;1.00;;
31406;SDS011;18043;52.438;4.836;2022-09-01T14:59:55;1.83;;;0.60;;
31406;SDS011;18043;52.438;4.836;2022-09-01T15:02:28;1.83;;;0.60;;
31406;SDS011;18043;52.438;4.836;2022-09-01T15:05:02;5.13;;;0.90;;
31406;SDS011;18043;52.438;4.836;2022-09-01T15:07:36;3.28;;;0.85;;
31406;SDS011;18043;52.438;4.836;2022-09-01T15:10:10;3.75;;;0.80;;
31406;SDS011;18043;52.438;4.836;2022-09-01T15:12:46;1.95;;;0.63;;
31406;SDS011;18043;52.438;4.836;2022-09-01T15:15:20;4.97;;;0.80;;
31406;SDS011;18043;52.438;4.836;2022-09-01T15:17:53;1.30;;;0.70;;
31406;SDS011;18043;52.438;4.836;2022-09-01T15:20:28;2.80;;;0.90;;
31406;SDS011;18043;52.438;4.836;2022-09-01T15:23:17;4.00;;;0.50;;
31406;SDS011;18043;52.438;4.836;2022-09-01T15:25:52;1.52;;;1.25;;
31406;SDS011;18043;52.438;4.836;2022-09-01T15:28:27;2.00;;;1.00;;
31406;SDS011;18043;52.438;4.836;2022-09-01T15:31:00;6.68;;;1.13;;
31406;SDS011;18043;52.438;4.836;2022-09-01T15:33:32;5.55;;;1.15;;
31406;SDS011;18043;52.438;4.836;2022-09-01T15:36:07;3.88;;;1.27;;
31406;SDS011;18043;52.438;4.836;2022-09-01T15:38:44;4.45;;;1.25;;
31406;SDS011;18043;52.438;4.836;2022-09-01T15:41:18;0.65;;;0.65;;
31406;SDS011;18043;52.438;4.836;2022-09-01T15:43:54;3.40;;;1.02;;
31406;SDS011;18043;52.438;4.836;2022-09-01T15:46:27;5.68;;;0.88;;
31406;SDS011;18043;52.438;4.836;2022-09-01T15:49:04;0.95;;;0.80;;
31406;SDS011;18043;52.438;4.836;2022-09-01T15:51:41;6.57;;;0.80;;
31406;SDS011;18043;52.438;4.836;2022-09-01T15:54:16;3.28;;;0.95;;
31406;SDS011;18043;52.438;4.836;2022-09-01T15:56:50;1.35;;;0.93;;
31406;SDS011;18043;52.438;4.836;2022-09-01T15:59:23;1.38;;;0.70;;
31406;SDS011;18043;52.438;4.836;2022-09-01T16:01:56;2.00;;;0.80;;
31406;SDS011;18043;52.438;4.836;2022-09-01T16:04:28;1.20;;;0.88;;
31406;SDS011;18043;52.438;4.836;2022-09-01T16:07:03;3.53;;;1.02;;
31406;SDS011;18043;52.438;4.836;2022-09-01T16:09:35;4.00;;;0.88;;
31406;SDS011;18043;52.438;4.836;2022-09-01T16:12:09;0.77;;;0.77;;
31406;SDS011;18043;52.438;4.836;2022-09-01T16:14:42;3.58;;;1.23;;
31406;SDS011;18043;52.438;4.836;2022-09-01T16:17:16;4.93;;;0.82;;
31406;SDS011;18043;52.438;4.836;2022-09-01T16:19:58;3.83;;;0.80;;
31406;SDS011;18043;52.438;4.836;2022-09-01T16:22:40;3.85;;;0.63;;
31406;SDS011;18043;52.438;4.836;2022-09-01T16:25:22;1.55;;;0.60;;
31406;SDS011;18043;52.438;4.836;2022-09-01T16:28:00;2.70;;;0.80;;
31406;SDS011;18043;52.438;4.836;2022-09-01T16:30:37;4.47;;;1.65;;
31406;SDS011;18043;52.438;4.836;2022-09-01T16:33:10;3.22;;;0.82;;
31406;SDS011;18043;52.438;4.836;2022-09-01T16:36:00;0.95;;;0.63;;